sensor_id;sensor_type;location;lat;lon;timestamp;noise_LAeq;noise_LA_min;noise_LA_max;noise_LA01;noise_LA95
68279;Laerm;55108;51.790;10.960;2023-02-14T00:01:34;30.78;27.53;38.09;;
68279;Laerm;55108;51.790;10.960;2023-02-14T00:03:59;58.13;27.17;77.42;;
68279;Laerm;55108;51.790;10.960;2023-02-14T00:06:25;57.05;26.19;74.68;;
68279;Laerm;55108;51.790;10.960;2023-02-14T00:08:51;44.23;26.45;60.17;;
68279;Laerm;55108;51.790;10.960;2023-02-14T00:11:18;28.18;25.91;32.08;;
68279;Laerm;55108;51.790;10.960;2023-02-14T00:13:43;56.99;25.94;76.22;;
68279;Laerm;55108;51.790;10.960;2023-02-14T00:16:28;30.17;26.58;41.70;;
68279;Laerm;55108;51.790;10.960;2023-02-14T00:18:53;30.54;25.90;41.37;;
68279;Laerm;55108;51.790;10.960;2023-02-14T00:21:27;30.39;25.81;43.77;;
68279;Laerm;55108;51.790;10.960;2023-02-14T00:23:52;32.83;26.07;45.92;;
68279;Laerm;55108;51.790;10.960;2023-02-14T00:26:17;57.91;26.73;76.16;;
68279;Laerm;55108;51.790;10.960;2023-02-14T00:28:42;57.35;27.25;73.18;;
68279;Laerm;55108;51.790;10.960;2023-02-14T00:31:07;58.28;27.18;75.88;;
68279;Laerm;55108;51.790;10.960;2023-02-14T00:33:33;27.89;26.47;30.57;;
68279;Laerm;55108;51.790;10.960;2023-02-14T00:36:00;29.00;26.22;40.14;;
68279;Laerm;55108;51.790;10.960;2023-02-14T00:38:26;60.31;26.40;80.09;;
68279;Laerm;55108;51.790;10.960;2023-02-14T00:40:51;31.56;26.28;40.15;;
68279;Laerm;55108;51.790;10.960;2023-02-14T00:43:16;28.80;26.33;33.89;;
68279;Laerm;55108;51.790;10.960;2023-02-14T00:45:41;28.94;26.25;35.42;;
68279;Laerm;55108;51.790;10.960;2023-02-14T00:48:06;30.96;26.90;37.57;;
68279;Laerm;55108;51.790;10.960;2023-02-14T00:50:31;55.82;27.19;69.66;;
68279;Laerm;55108;51.790;10.960;2023-02-14T00:52:56;49.75;28.10;67.26;;
68279;Laerm;55108;51.790;10.960;2023-02-14T00:55:21;30.95;27.38;37.68;;
68279;Laerm;55108;51.790;10.960;2023-02-14T00:57:47;35.70;28.91;46.36;;
68279;Laerm;55108;51.790;10.960;2023-02-14T01:00:12;62.90;27.04;79.80;;
68279;Laerm;55108;51.790;10.960;2023-02-14T01:02:37;31.26;27.35;39.97;;
68279;Laerm;55108;51.790;10.960;2023-02-14T01:05:02;51.59;26.34;69.63;;
68279;Laerm;55108;51.790;10.960;2023-02-14T01:07:27;29.84;26.57;36.73;;
68279;Laerm;55108;51.790;10.960;2023-02-14T01:09:52;29.73;26.80;35.35;;
68279;Laerm;55108;51.790;10.960;2023-02-14T01:12:18;32.35;27.55;38.38;;
68279;Laerm;55108;51.790;10.960;2023-02-14T01:14:43;58.99;28.40;75.48;;
68279;Laerm;55108;51.790;10.960;2023-02-14T01:17:08;35.81;27.57;50.19;;
68279;Laerm;55108;51.790;10.960;2023-02-14T01:19:33;35.59;26.71;46.39;;
68279;Laerm;55108;51.790;10.960;2023-02-14T01:21:58;59.43;27.07;79.90;;
68279;Laerm;55108;51.790;10.960;2023-02-14T01:24:23;51.52;28.25;70.07;;
68279;Laerm;55108;51.790;10.960;2023-02-14T01:26:50;30.92;26.70;39.86;;
68279;Laerm;55108;51.790;10.960;2023-02-14T01:29:15;28.42;26.25;32.21;;
68279;Laerm;55108;51.790;10.960;2023-02-14T01:31:40;30.30;26.43;40.92;;
68279;Laerm;55108;51.790;10.960;2023-02-14T01:34:05;29.23;26.39;34.52;;
68279;Laerm;55108;51.790;10.960;2023-02-14T01:36:32;49.84;26.85;69.60;;
68279;Laerm;55108;51.790;10.960;2023-02-14T01:38:59;49.78;26.30;64.60;;
68279;Laerm;55108;51.790;10.960;2023-02-14T01:41:26;30.54;27.38;40.95;;
68279;Laerm;55108;51.790;10.960;2023-02-14T01:43:53;30.56;27.10;41.58;;
68279;Laerm;55108;51.790;10.960;2023-02-14T01:46:19;31.30;27.91;36.35;;
68279;Laerm;55108;51.790;10.960;2023-02-14T01:48:45;29.30;27.21;34.05;;
68279;Laerm;55108;51.790;10.960;2023-02-14T01:51:10;34.22;27.33;48.90;;
68279;Laerm;55108;51.790;10.960;2023-02-14T01:53:36;61.17;28.73;80.37;;
68279;Laerm;55108;51.790;10.960;2023-02-14T01:56:03;31.38;27.42;49.44;;
68279;Laerm;55108;51.790;10.960;2023-02-14T01:58:29;33.23;27.93;40.50;;
68279;Laerm;55108;51.790;10.960;2023-02-14T02:00:58;31.75;27.31;40.99;;
68279;Laerm;55108;51.790;10.960;2023-02-14T02:05:50;35.22;27.74;50.37;;
68279;Laerm;55108;51.790;10.960;2023-02-14T02:08:17;58.77;27.12;77.56;;
68279;Laerm;55108;51.790;10.960;2023-02-14T02:10:42;58.40;27.46;77.44;;
68279;Laerm;55108;51.790;10.960;2023-02-14T02:13:07;31.65;26.55;43.28;;
68279;Laerm;55108;51.790;10.960;2023-02-14T02:15:35;28.24;26.39;32.25;;
68279;Laerm;55108;51.790;10.960;2023-02-14T02:18:09;30.06;26.48;37.27;;
68279;Laerm;55108;51.790;10.960;2023-02-14T02:23:27;28.98;26.60;38.98;;
68279;Laerm;55108;51.790;10.960;2023-02-14T02:28:52;32.31;27.50;51.93;;
68279;Laerm;55108;51.790;10.960;2023-02-14T02:31:47;32.25;27.63;47.57;;
68279;Laerm;55108;51.790;10.960;2023-02-14T02:34:39;32.65;28.12;40.73;;
68279;Laerm;55108;51.790;10.960;2023-02-14T02:37:11;31.45;27.28;38.68;;
68279;Laerm;55108;51.790;10.960;2023-02-14T02:40:26;29.11;26.83;45.92;;
68279;Laerm;55108;51.790;10.960;2023-02-14T02:42:33;29.23;26.64;39.08;;
68279;Laerm;55108;51.790;10.960;2023-02-14T02:45:15;29.81;27.25;33.76;;
68279;Laerm;55108;51.790;10.960;2023-02-14T02:47:44;65.19;27.36;91.66;;
68279;Laerm;55108;51.790;10.960;2023-02-14T02:53:14;31.26;27.37;37.56;;
68279;Laerm;55108;51.790;10.960;2023-02-14T02:55:49;60.23;27.09;79.47;;
68279;Laerm;55108;51.790;10.960;2023-02-14T02:58:36;34.94;27.66;47.49;;
68279;Laerm;55108;51.790;10.960;2023-02-14T03:01:06;31.23;27.85;40.00;;
68279;Laerm;55108;51.790;10.960;2023-02-14T03:03:32;31.06;27.77;38.34;;
68279;Laerm;55108;51.790;10.960;2023-02-14T03:06:17;60.87;28.01;80.43;;
68279;Laerm;55108;51.790;10.960;2023-02-14T03:08:42;35.05;27.87;46.40;;
68279;Laerm;55108;51.790;10.960;2023-02-14T03:11:08;31.25;27.32;37.55;;
68279;Laerm;55108;51.790;10.960;2023-02-14T03:21:27;66.80;29.28;87.58;;
68279;Laerm;55108;51.790;10.960;2023-02-14T03:24:38;58.82;27.69;76.09;;
68279;Laerm;55108;51.790;10.960;2023-02-14T03:29:11;35.97;30.66;45.69;;
68279;Laerm;55108;51.790;10.960;2023-02-14T03:31:42;65.00;30.98;85.61;;
68279;Laerm;55108;51.790;10.960;2023-02-14T03:34:14;63.74;32.16;83.13;;
68279;Laerm;55108;51.790;10.960;2023-02-14T03:36:48;51.59;30.65;68.13;;
68279;Laerm;55108;51.790;10.960;2023-02-14T03:39:20;34.20;30.68;40.30;;
68279;Laerm;55108;51.790;10.960;2023-02-14T03:41:49;62.85;31.47;78.12;;
68279;Laerm;55108;51.790;10.960;2023-02-14T03:44:17;41.94;32.93;57.37;;
68279;Laerm;55108;51.790;10.960;2023-02-14T03:46:44;61.78;32.82;78.83;;
68279;Laerm;55108;51.790;10.960;2023-02-14T03:49:12;46.70;31.93;62.18;;
68279;Laerm;55108;51.790;10.960;2023-02-14T03:51:39;60.90;31.01;75.47;;
68279;Laerm;55108;51.790;10.960;2023-02-14T03:54:05;59.40;34.26;72.83;;
68279;Laerm;55108;51.790;10.960;2023-02-14T03:56:42;61.83;35.85;80.88;;
68279;Laerm;55108;51.790;10.960;2023-02-14T03:59:14;63.19;32.27;79.57;;
68279;Laerm;55108;51.790;10.960;2023-02-14T04:01:45;37.08;30.89;44.86;;
68279;Laerm;55108;51.790;10.960;2023-02-14T04:04:12;61.17;29.93;77.27;;
68279;Laerm;55108;51.790;10.960;2023-02-14T04:06:39;58.94;30.04;76.16;;
68279;Laerm;55108;51.790;10.960;2023-02-14T04:09:04;55.49;31.40;70.91;;
68279;Laerm;55108;51.790;10.960;2023-02-14T04:11:29;64.81;32.82;82.37;;
68279;Laerm;55108;51.790;10.960;2023-02-14T04:13:58;58.36;33.85;75.76;;
68279;Laerm;55108;51.790;10.960;2023-02-14T04:16:24;64.53;32.27;80.83;;
68279;Laerm;55108;51.790;10.960;2023-02-14T04:18:49;66.25;37.90;92.29;;
68279;Laerm;55108;51.790;10.960;2023-02-14T04:21:33;59.46;35.13;74.86;;
68279;Laerm;55108;51.790;10.960;2023-02-14T04:23:58;62.13;34.53;78.08;;
68279;Laerm;55108;51.790;10.960;2023-02-14T04:26:23;61.71;33.67;80.17;;
68279;Laerm;55108;51.790;10.960;2023-02-14T04:28:48;55.20;33.66;73.01;;
68279;Laerm;55108;51.790;10.960;2023-02-14T04:31:13;68.04;39.74;82.38;;
68279;Laerm;55108;51.790;10.960;2023-02-14T04:33:39;67.40;39.04;82.85;;
68279;Laerm;55108;51.790;10.960;2023-02-14T04:36:04;64.27;34.85;82.39;;
68279;Laerm;55108;51.790;10.960;2023-02-14T04:38:30;67.78;37.42;83.33;;
68279;Laerm;55108;51.790;10.960;2023-02-14T04:40:55;62.81;39.35;74.54;;
68279;Laerm;55108;51.790;10.960;2023-02-14T04:43:20;65.52;39.15;83.12;;
68279;Laerm;55108;51.790;10.960;2023-02-14T04:45:45;65.97;40.87;83.20;;
68279;Laerm;55108;51.790;10.960;2023-02-14T04:48:11;63.95;36.12;77.05;;
68279;Laerm;55108;51.790;10.960;2023-02-14T04:50:36;64.84;38.80;76.98;;
68279;Laerm;55108;51.790;10.960;2023-02-14T04:53:01;65.36;35.29;78.05;;
68279;Laerm;55108;51.790;10.960;2023-02-14T04:55:26;65.69;41.09;78.03;;
68279;Laerm;55108;51.790;10.960;2023-02-14T04:57:51;66.72;35.24;84.82;;
68279;Laerm;55108;51.790;10.960;2023-02-14T05:00:17;66.94;43.49;79.64;;
68279;Laerm;55108;51.790;10.960;2023-02-14T05:02:42;63.22;37.36;76.56;;
68279;Laerm;55108;51.790;10.960;2023-02-14T05:05:07;61.34;37.14;75.19;;
68279;Laerm;55108;51.790;10.960;2023-02-14T05:07:32;61.65;36.50;74.00;;
68279;Laerm;55108;51.790;10.960;2023-02-14T05:09:57;65.29;37.39;81.90;;
68279;Laerm;55108;51.790;10.960;2023-02-14T05:12:22;66.83;39.47;77.68;;
68279;Laerm;55108;51.790;10.960;2023-02-14T05:14:48;66.61;40.50;81.73;;
68279;Laerm;55108;51.790;10.960;2023-02-14T05:17:13;65.68;46.81;78.92;;
68279;Laerm;55108;51.790;10.960;2023-02-14T05:19:38;64.68;43.00;79.45;;
68279;Laerm;55108;51.790;10.960;2023-02-14T05:22:03;68.33;47.03;81.62;;
68279;Laerm;55108;51.790;10.960;2023-02-14T05:24:28;68.80;41.83;82.07;;
68279;Laerm;55108;51.790;10.960;2023-02-14T05:26:53;65.86;41.22;87.34;;
68279;Laerm;55108;51.790;10.960;2023-02-14T05:29:19;69.88;46.50;89.11;;
68279;Laerm;55108;51.790;10.960;2023-02-14T05:31:44;63.22;41.77;77.26;;
68279;Laerm;55108;51.790;10.960;2023-02-14T05:34:09;65.09;42.62;75.56;;
68279;Laerm;55108;51.790;10.960;2023-02-14T05:36:35;66.16;44.40;79.55;;
68279;Laerm;55108;51.790;10.960;2023-02-14T05:39:00;66.24;41.48;80.42;;
68279;Laerm;55108;51.790;10.960;2023-02-14T05:41:25;67.03;45.10;78.51;;
68279;Laerm;55108;51.790;10.960;2023-02-14T05:43:50;65.82;45.78;80.03;;
68279;Laerm;55108;51.790;10.960;2023-02-14T05:46:15;66.50;43.50;79.00;;
68279;Laerm;55108;51.790;10.960;2023-02-14T05:48:40;66.85;44.16;79.51;;
68279;Laerm;55108;51.790;10.960;2023-02-14T05:51:06;69.85;47.83;82.39;;
68279;Laerm;55108;51.790;10.960;2023-02-14T05:53:32;66.17;45.33;77.39;;
68279;Laerm;55108;51.790;10.960;2023-02-14T05:55:57;65.32;48.50;80.26;;
68279;Laerm;55108;51.790;10.960;2023-02-14T05:58:22;67.31;44.54;80.06;;
68279;Laerm;55108;51.790;10.960;2023-02-14T06:00:47;67.09;46.18;80.64;;
68279;Laerm;55108;51.790;10.960;2023-02-14T06:03:12;66.14;43.35;83.64;;
68279;Laerm;55108;51.790;10.960;2023-02-14T06:05:37;67.67;43.91;83.22;;
68279;Laerm;55108;51.790;10.960;2023-02-14T06:08:03;65.70;44.27;79.50;;
68279;Laerm;55108;51.790;10.960;2023-02-14T06:10:28;67.41;46.18;77.10;;
68279;Laerm;55108;51.790;10.960;2023-02-14T06:12:53;68.49;50.92;78.43;;
68279;Laerm;55108;51.790;10.960;2023-02-14T06:15:18;67.81;48.11;79.27;;
68279;Laerm;55108;51.790;10.960;2023-02-14T06:17:44;67.89;46.70;79.74;;
68279;Laerm;55108;51.790;10.960;2023-02-14T06:20:09;67.92;48.27;78.54;;
68279;Laerm;55108;51.790;10.960;2023-02-14T06:22:35;67.63;46.20;78.65;;
68279;Laerm;55108;51.790;10.960;2023-02-14T06:25:00;66.29;47.28;79.35;;
68279;Laerm;55108;51.790;10.960;2023-02-14T06:27:27;66.23;44.85;77.40;;
68279;Laerm;55108;51.790;10.960;2023-02-14T06:29:52;67.45;46.46;77.13;;
68279;Laerm;55108;51.790;10.960;2023-02-14T06:32:17;68.58;45.42;83.68;;
68279;Laerm;55108;51.790;10.960;2023-02-14T06:34:42;68.47;47.80;80.81;;
68279;Laerm;55108;51.790;10.960;2023-02-14T06:37:09;68.24;45.23;81.18;;
68279;Laerm;55108;51.790;10.960;2023-02-14T06:39:34;67.04;47.88;77.89;;
68279;Laerm;55108;51.790;10.960;2023-02-14T06:41:59;69.35;52.50;80.87;;
68279;Laerm;55108;51.790;10.960;2023-02-14T06:44:24;67.30;48.49;78.08;;
68279;Laerm;55108;51.790;10.960;2023-02-14T06:46:50;66.64;45.51;79.58;;
68279;Laerm;55108;51.790;10.960;2023-02-14T06:49:15;68.02;46.04;79.19;;
68279;Laerm;55108;51.790;10.960;2023-02-14T06:51:40;68.50;48.60;79.60;;
68279;Laerm;55108;51.790;10.960;2023-02-14T06:54:05;69.67;49.53;81.67;;
68279;Laerm;55108;51.790;10.960;2023-02-14T06:56:30;68.69;47.25;81.98;;
68279;Laerm;55108;51.790;10.960;2023-02-14T06:58:55;68.10;47.80;79.73;;
68279;Laerm;55108;51.790;10.960;2023-02-14T07:01:20;68.40;48.30;79.71;;
68279;Laerm;55108;51.790;10.960;2023-02-14T07:03:45;66.70;47.68;78.36;;
68279;Laerm;55108;51.790;10.960;2023-02-14T07:06:10;65.54;43.34;75.67;;
68279;Laerm;55108;51.790;10.960;2023-02-14T07:08:36;66.23;42.01;77.38;;
68279;Laerm;55108;51.790;10.960;2023-02-14T07:11:01;66.80;46.35;78.60;;
68279;Laerm;55108;51.790;10.960;2023-02-14T07:13:26;65.08;42.77;75.43;;
68279;Laerm;55108;51.790;10.960;2023-02-14T07:15:51;66.26;46.29;77.26;;
68279;Laerm;55108;51.790;10.960;2023-02-14T07:18:16;66.34;42.29;80.58;;
68279;Laerm;55108;51.790;10.960;2023-02-14T07:20:41;66.58;44.66;80.82;;
68279;Laerm;55108;51.790;10.960;2023-02-14T07:23:08;68.23;46.63;84.36;;
68279;Laerm;55108;51.790;10.960;2023-02-14T07:25:33;66.39;42.98;78.27;;
68279;Laerm;55108;51.790;10.960;2023-02-14T07:27:59;67.68;46.80;79.99;;
68279;Laerm;55108;51.790;10.960;2023-02-14T07:30:24;64.87;44.26;79.12;;
68279;Laerm;55108;51.790;10.960;2023-02-14T07:32:49;66.56;44.32;77.46;;
68279;Laerm;55108;51.790;10.960;2023-02-14T07:35:14;68.11;43.38;79.13;;
68279;Laerm;55108;51.790;10.960;2023-02-14T07:37:39;66.90;44.48;78.80;;
68279;Laerm;55108;51.790;10.960;2023-02-14T07:40:05;67.56;46.72;81.54;;
68279;Laerm;55108;51.790;10.960;2023-02-14T07:42:30;68.85;45.16;84.61;;
68279;Laerm;55108;51.790;10.960;2023-02-14T07:44:55;69.41;47.63;79.80;;
68279;Laerm;55108;51.790;10.960;2023-02-14T07:47:20;65.77;47.15;79.09;;
68279;Laerm;55108;51.790;10.960;2023-02-14T07:49:45;68.42;49.57;83.91;;
68279;Laerm;55108;51.790;10.960;2023-02-14T07:52:10;69.11;53.25;82.26;;
68279;Laerm;55108;51.790;10.960;2023-02-14T07:54:36;68.54;48.05;79.57;;
68279;Laerm;55108;51.790;10.960;2023-02-14T07:57:02;67.48;45.48;79.94;;
68279;Laerm;55108;51.790;10.960;2023-02-14T07:59:28;68.88;49.52;79.06;;
68279;Laerm;55108;51.790;10.960;2023-02-14T08:01:53;68.53;48.34;82.74;;
68279;Laerm;55108;51.790;10.960;2023-02-14T08:04:18;68.38;44.66;80.87;;
68279;Laerm;55108;51.790;10.960;2023-02-14T08:06:43;66.92;43.15;83.44;;
68279;Laerm;55108;51.790;10.960;2023-02-14T08:09:08;65.71;43.20;77.42;;
68279;Laerm;55108;51.790;10.960;2023-02-14T08:11:34;67.94;41.45;83.00;;
68279;Laerm;55108;51.790;10.960;2023-02-14T08:14:18;69.24;46.55;84.71;;
68279;Laerm;55108;51.790;10.960;2023-02-14T08:16:43;66.47;44.34;80.03;;
68279;Laerm;55108;51.790;10.960;2023-02-14T08:19:08;66.03;47.63;75.96;;
68279;Laerm;55108;51.790;10.960;2023-02-14T08:21:33;68.96;52.23;79.93;;
68279;Laerm;55108;51.790;10.960;2023-02-14T08:23:58;67.93;47.77;78.56;;
68279;Laerm;55108;51.790;10.960;2023-02-14T08:26:23;68.31;52.01;79.25;;
68279;Laerm;55108;51.790;10.960;2023-02-14T08:28:49;68.39;46.83;80.35;;
68279;Laerm;55108;51.790;10.960;2023-02-14T08:31:21;68.11;50.00;79.75;;
68279;Laerm;55108;51.790;10.960;2023-02-14T08:33:46;67.84;45.58;82.11;;
68279;Laerm;55108;51.790;10.960;2023-02-14T08:36:12;74.48;46.42;101.13;;
68279;Laerm;55108;51.790;10.960;2023-02-14T08:38:37;69.92;47.75;91.12;;
68279;Laerm;55108;51.790;10.960;2023-02-14T08:41:02;68.30;45.89;81.55;;
68279;Laerm;55108;51.790;10.960;2023-02-14T08:43:27;68.52;47.92;83.35;;
68279;Laerm;55108;51.790;10.960;2023-02-14T08:45:52;69.52;49.26;82.33;;
68279;Laerm;55108;51.790;10.960;2023-02-14T08:48:17;70.61;51.87;87.43;;
68279;Laerm;55108;51.790;10.960;2023-02-14T08:50:43;66.73;44.80;78.00;;
68279;Laerm;55108;51.790;10.960;2023-02-14T08:53:09;65.88;44.79;76.56;;
68279;Laerm;55108;51.790;10.960;2023-02-14T08:55:35;68.91;48.71;81.90;;
68279;Laerm;55108;51.790;10.960;2023-02-14T08:58:00;68.36;45.51;81.30;;
68279;Laerm;55108;51.790;10.960;2023-02-14T09:00:26;66.75;47.14;81.59;;
68279;Laerm;55108;51.790;10.960;2023-02-14T09:02:51;67.63;48.89;80.30;;
68279;Laerm;55108;51.790;10.960;2023-02-14T09:05:16;70.06;52.09;82.21;;
68279;Laerm;55108;51.790;10.960;2023-02-14T09:07:41;69.14;44.66;80.51;;
68279;Laerm;55108;51.790;10.960;2023-02-14T09:10:07;65.98;44.83;78.17;;
68279;Laerm;55108;51.790;10.960;2023-02-14T09:12:32;68.23;43.72;82.38;;
68279;Laerm;55108;51.790;10.960;2023-02-14T09:14:57;66.27;43.66;77.25;;
68279;Laerm;55108;51.790;10.960;2023-02-14T09:17:22;68.16;43.99;80.78;;
68279;Laerm;55108;51.790;10.960;2023-02-14T09:19:48;68.05;44.82;80.75;;
68279;Laerm;55108;51.790;10.960;2023-02-14T09:22:13;69.73;50.90;80.66;;
68279;Laerm;55108;51.790;10.960;2023-02-14T09:24:38;70.34;46.21;83.99;;
68279;Laerm;55108;51.790;10.960;2023-02-14T09:27:04;66.64;46.64;78.72;;
68279;Laerm;55108;51.790;10.960;2023-02-14T09:29:29;65.66;41.68;77.50;;
68279;Laerm;55108;51.790;10.960;2023-02-14T09:31:55;71.61;48.26;85.20;;
68279;Laerm;55108;51.790;10.960;2023-02-14T09:34:21;69.08;48.89;83.11;;
68279;Laerm;55108;51.790;10.960;2023-02-14T09:37:05;67.89;46.41;82.11;;
68279;Laerm;55108;51.790;10.960;2023-02-14T09:39:49;67.77;47.39;82.00;;
68279;Laerm;55108;51.790;10.960;2023-02-14T09:42:20;67.57;50.11;78.36;;
68279;Laerm;55108;51.790;10.960;2023-02-14T09:49:49;68.60;50.14;76.77;;
68279;Laerm;55108;51.790;10.960;2023-02-14T09:52:15;68.55;47.79;82.29;;
68279;Laerm;55108;51.790;10.960;2023-02-14T09:54:42;67.89;47.47;79.04;;
68279;Laerm;55108;51.790;10.960;2023-02-14T09:57:12;67.00;45.74;77.84;;
68279;Laerm;55108;51.790;10.960;2023-02-14T09:59:46;68.04;50.22;79.97;;
68279;Laerm;55108;51.790;10.960;2023-02-14T10:02:31;68.11;46.01;79.17;;
68279;Laerm;55108;51.790;10.960;2023-02-14T10:05:14;65.97;48.82;76.45;;
68279;Laerm;55108;51.790;10.960;2023-02-14T10:07:54;67.27;47.14;80.47;;
68279;Laerm;55108;51.790;10.960;2023-02-14T10:15:33;67.14;51.11;77.04;;
68279;Laerm;55108;51.790;10.960;2023-02-14T10:18:02;67.38;42.95;85.44;;
68279;Laerm;55108;51.790;10.960;2023-02-14T10:20:30;65.37;42.04;75.44;;
68279;Laerm;55108;51.790;10.960;2023-02-14T10:25:42;67.25;49.83;77.56;;
68279;Laerm;55108;51.790;10.960;2023-02-14T10:28:10;66.82;43.26;77.11;;
68279;Laerm;55108;51.790;10.960;2023-02-14T10:30:37;68.94;48.56;83.49;;
68279;Laerm;55108;51.790;10.960;2023-02-14T10:35:37;68.91;45.73;81.57;;
68279;Laerm;55108;51.790;10.960;2023-02-14T10:40:58;66.63;38.96;76.86;;
68279;Laerm;55108;51.790;10.960;2023-02-14T10:46:07;66.97;46.37;79.65;;
68279;Laerm;55108;51.790;10.960;2023-02-14T10:48:59;67.20;38.72;81.56;;
68279;Laerm;55108;51.790;10.960;2023-02-14T10:51:29;65.36;38.72;80.16;;
68279;Laerm;55108;51.790;10.960;2023-02-14T10:54:17;68.40;42.92;82.63;;
68279;Laerm;55108;51.790;10.960;2023-02-14T10:56:45;68.35;51.69;83.02;;
68279;Laerm;55108;51.790;10.960;2023-02-14T10:59:16;66.04;41.71;81.09;;
68279;Laerm;55108;51.790;10.960;2023-02-14T11:01:45;66.09;44.86;77.72;;
68279;Laerm;55108;51.790;10.960;2023-02-14T11:04:11;71.19;49.84;87.61;;
68279;Laerm;55108;51.790;10.960;2023-02-14T11:06:38;67.66;46.34;82.26;;
68279;Laerm;55108;51.790;10.960;2023-02-14T11:09:03;68.14;44.69;78.24;;
68279;Laerm;55108;51.790;10.960;2023-02-14T11:11:38;68.65;48.88;82.46;;
68279;Laerm;55108;51.790;10.960;2023-02-14T11:16:45;68.36;47.29;81.70;;
68279;Laerm;55108;51.790;10.960;2023-02-14T11:21:41;69.03;45.41;83.45;;
68279;Laerm;55108;51.790;10.960;2023-02-14T11:24:16;66.38;45.20;78.66;;
68279;Laerm;55108;51.790;10.960;2023-02-14T11:26:44;67.44;47.55;77.76;;
68279;Laerm;55108;51.790;10.960;2023-02-14T11:29:11;67.10;41.58;76.95;;
68279;Laerm;55108;51.790;10.960;2023-02-14T11:31:37;67.44;41.91;83.54;;
68279;Laerm;55108;51.790;10.960;2023-02-14T11:34:04;67.03;47.32;84.45;;
68279;Laerm;55108;51.790;10.960;2023-02-14T11:36:30;68.93;44.19;78.83;;
68279;Laerm;55108;51.790;10.960;2023-02-14T11:39:04;68.12;44.27;77.23;;
68279;Laerm;55108;51.790;10.960;2023-02-14T11:41:46;66.49;46.78;76.16;;
68279;Laerm;55108;51.790;10.960;2023-02-14T11:44:22;67.57;42.94;81.49;;
68279;Laerm;55108;51.790;10.960;2023-02-14T11:46:51;67.95;44.49;82.96;;
68279;Laerm;55108;51.790;10.960;2023-02-14T11:51:52;66.81;46.53;78.40;;
68279;Laerm;55108;51.790;10.960;2023-02-14T11:54:38;67.01;44.56;80.51;;
68279;Laerm;55108;51.790;10.960;2023-02-14T11:57:07;70.27;49.19;84.95;;
68279;Laerm;55108;51.790;10.960;2023-02-14T11:59:46;67.17;42.19;78.48;;
68279;Laerm;55108;51.790;10.960;2023-02-14T12:02:17;67.26;46.05;86.88;;
68279;Laerm;55108;51.790;10.960;2023-02-14T12:04:45;67.86;48.00;79.21;;
68279;Laerm;55108;51.790;10.960;2023-02-14T12:10:04;70.91;48.36;89.73;;
68279;Laerm;55108;51.790;10.960;2023-02-14T12:12:30;66.52;46.85;76.90;;
68279;Laerm;55108;51.790;10.960;2023-02-14T12:15:11;62.26;39.56;74.92;;
68279;Laerm;55108;51.790;10.960;2023-02-14T12:17:37;68.10;39.83;82.26;;
68279;Laerm;55108;51.790;10.960;2023-02-14T12:20:07;66.37;42.46;77.30;;
68279;Laerm;55108;51.790;10.960;2023-02-14T12:22:36;67.83;43.23;81.17;;
68279;Laerm;55108;51.790;10.960;2023-02-14T12:25:12;70.01;46.06;84.77;;
68279;Laerm;55108;51.790;10.960;2023-02-14T12:27:46;65.04;40.41;78.99;;
68279;Laerm;55108;51.790;10.960;2023-02-14T12:30:17;69.01;43.24;78.88;;
68279;Laerm;55108;51.790;10.960;2023-02-14T12:32:49;68.71;48.51;85.19;;
68279;Laerm;55108;51.790;10.960;2023-02-14T12:35:20;67.40;44.94;82.07;;
68279;Laerm;55108;51.790;10.960;2023-02-14T12:37:55;67.16;38.13;81.11;;
68279;Laerm;55108;51.790;10.960;2023-02-14T12:40:32;70.22;52.23;84.31;;
68279;Laerm;55108;51.790;10.960;2023-02-14T12:45:51;65.68;43.18;81.55;;
68279;Laerm;55108;51.790;10.960;2023-02-14T12:48:24;63.81;43.00;84.65;;
68279;Laerm;55108;51.790;10.960;2023-02-14T12:51:05;67.01;46.80;79.92;;
68279;Laerm;55108;51.790;10.960;2023-02-14T13:11:34;66.92;44.66;79.58;;
68279;Laerm;55108;51.790;10.960;2023-02-14T13:19:35;64.95;39.76;76.89;;
68279;Laerm;55108;51.790;10.960;2023-02-14T13:22:04;67.27;45.01;77.91;;
68279;Laerm;55108;51.790;10.960;2023-02-14T13:24:43;66.46;45.16;78.36;;
68279;Laerm;55108;51.790;10.960;2023-02-14T13:27:11;66.66;48.96;78.88;;
68279;Laerm;55108;51.790;10.960;2023-02-14T13:29:41;69.16;49.52;81.28;;
68279;Laerm;55108;51.790;10.960;2023-02-14T13:32:08;67.35;50.32;75.12;;
68279;Laerm;55108;51.790;10.960;2023-02-14T13:34:37;68.10;50.30;77.42;;
68279;Laerm;55108;51.790;10.960;2023-02-14T13:37:05;68.95;47.65;83.88;;
68279;Laerm;55108;51.790;10.960;2023-02-14T13:39:32;66.75;44.32;75.40;;
68279;Laerm;55108;51.790;10.960;2023-02-14T13:41:58;68.33;48.27;80.54;;
68279;Laerm;55108;51.790;10.960;2023-02-14T13:47:14;70.65;50.39;85.35;;
68279;Laerm;55108;51.790;10.960;2023-02-14T13:49:44;68.57;46.35;80.18;;
68279;Laerm;55108;51.790;10.960;2023-02-14T13:52:10;66.41;48.54;75.41;;
68279;Laerm;55108;51.790;10.960;2023-02-14T13:54:41;68.67;47.65;78.74;;
68279;Laerm;55108;51.790;10.960;2023-02-14T14:02:43;67.16;47.46;78.10;;
68279;Laerm;55108;51.790;10.960;2023-02-14T14:13:42;70.97;48.52;85.29;;
68279;Laerm;55108;51.790;10.960;2023-02-14T14:18:41;67.04;48.94;76.50;;
68279;Laerm;55108;51.790;10.960;2023-02-14T14:21:13;66.43;44.30;75.48;;
68279;Laerm;55108;51.790;10.960;2023-02-14T14:23:38;68.73;52.38;81.89;;
68279;Laerm;55108;51.790;10.960;2023-02-14T14:28:49;68.35;47.45;80.69;;
68279;Laerm;55108;51.790;10.960;2023-02-14T14:31:14;67.43;43.68;78.85;;
68279;Laerm;55108;51.790;10.960;2023-02-14T14:33:43;68.24;45.63;82.44;;
68279;Laerm;55108;51.790;10.960;2023-02-14T14:36:08;68.44;45.94;83.92;;
68279;Laerm;55108;51.790;10.960;2023-02-14T14:38:47;66.71;41.01;77.09;;
68279;Laerm;55108;51.790;10.960;2023-02-14T14:41:13;68.60;48.71;78.75;;
68279;Laerm;55108;51.790;10.960;2023-02-14T14:43:38;68.12;52.32;81.16;;
68279;Laerm;55108;51.790;10.960;2023-02-14T14:46:06;66.97;51.86;77.28;;
68279;Laerm;55108;51.790;10.960;2023-02-14T14:48:51;69.18;50.51;89.51;;
68279;Laerm;55108;51.790;10.960;2023-02-14T14:51:29;66.98;46.76;76.85;;
68279;Laerm;55108;51.790;10.960;2023-02-14T14:54:12;67.93;45.59;78.13;;
68279;Laerm;55108;51.790;10.960;2023-02-14T14:56:48;66.67;41.81;77.78;;
68279;Laerm;55108;51.790;10.960;2023-02-14T14:59:30;68.98;45.28;85.20;;
68279;Laerm;55108;51.790;10.960;2023-02-14T15:01:59;68.43;47.19;78.03;;
68279;Laerm;55108;51.790;10.960;2023-02-14T15:04:28;69.11;48.47;82.08;;
68279;Laerm;55108;51.790;10.960;2023-02-14T15:06:54;66.82;41.58;80.57;;
68279;Laerm;55108;51.790;10.960;2023-02-14T15:09:21;69.25;44.04;77.03;;
68279;Laerm;55108;51.790;10.960;2023-02-14T15:11:46;69.68;49.40;80.58;;
68279;Laerm;55108;51.790;10.960;2023-02-14T15:14:34;67.93;51.93;80.09;;
68279;Laerm;55108;51.790;10.960;2023-02-14T15:17:05;67.51;47.68;77.08;;
68279;Laerm;55108;51.790;10.960;2023-02-14T15:19:32;67.35;44.41;78.83;;